sensor_id;sensor_type;location;lat;lon;timestamp;P1;durP1;ratioP1;P2;durP2;ratioP2
20427;SDS011;10373;49.768;18.302;2022-09-09T00:04:05;2.83;;;1.77;;
20427;SDS011;10373;49.768;18.302;2022-09-09T00:09:21;2.50;;;1.70;;
20427;SDS011;10373;49.768;18.302;2022-09-09T00:11:52;2.00;;;1.85;;
20427;SDS011;10373;49.768;18.302;2022-09-09T00:14:59;2.15;;;2.00;;
20427;SDS011;10373;49.768;18.302;2022-09-09T00:17:35;2.20;;;2.00;;
20427;SDS011;10373;49.768;18.302;2022-09-09T00:20:14;2.13;;;1.92;;
20427;SDS011;10373;49.768;18.302;2022-09-09T00:22:45;2.72;;;2.03;;
20427;SDS011;10373;49.768;18.302;2022-09-09T00:25:19;1.80;;;1.70;;
20427;SDS011;10373;49.768;18.302;2022-09-09T00:27:52;1.92;;;1.83;;
20427;SDS011;10373;49.768;18.302;2022-09-09T00:32:50;1.90;;;1.80;;
20427;SDS011;10373;49.768;18.302;2022-09-09T00:35:25;2.00;;;1.80;;
20427;SDS011;10373;49.768;18.302;2022-09-09T00:38:03;1.88;;;1.77;;
20427;SDS011;10373;49.768;18.302;2022-09-09T00:40:53;1.88;;;1.77;;
20427;SDS011;10373;49.768;18.302;2022-09-09T00:43:28;2.00;;;1.77;;
20427;SDS011;10373;49.768;18.302;2022-09-09T00:48:33;2.30;;;1.88;;
20427;SDS011;10373;49.768;18.302;2022-09-09T00:57:14;1.73;;;1.63;;
20427;SDS011;10373;49.768;18.302;2022-09-09T00:59:52;6.82;;;1.60;;
20427;SDS011;10373;49.768;18.302;2022-09-09T01:02:29;1.70;;;1.60;;
20427;SDS011;10373;49.768;18.302;2022-09-09T01:08:01;2.20;;;1.63;;
20427;SDS011;10373;49.768;18.302;2022-09-09T01:13:04;1.60;;;1.50;;
20427;SDS011;10373;49.768;18.302;2022-09-09T01:15:39;1.70;;;1.60;;
20427;SDS011;10373;49.768;18.302;2022-09-09T01:18:08;1.05;;;1.00;;
20427;SDS011;10373;49.768;18.302;2022-09-09T01:26:10;1.50;;;1.40;;
20427;SDS011;10373;49.768;18.302;2022-09-09T01:28:49;1.50;;;1.40;;
20427;SDS011;10373;49.768;18.302;2022-09-09T01:31:39;1.60;;;1.50;;
20427;SDS011;10373;49.768;18.302;2022-09-09T01:34:13;1.40;;;1.30;;
20427;SDS011;10373;49.768;18.302;2022-09-09T01:39:32;1.45;;;1.35;;
20427;SDS011;10373;49.768;18.302;2022-09-09T01:42:00;1.48;;;1.38;;
20427;SDS011;10373;49.768;18.302;2022-09-09T01:44:27;1.88;;;1.77;;
20427;SDS011;10373;49.768;18.302;2022-09-09T01:46:54;1.63;;;1.52;;
20427;SDS011;10373;49.768;18.302;2022-09-09T01:49:20;2.80;;;1.65;;
20427;SDS011;10373;49.768;18.302;2022-09-09T01:51:48;1.90;;;1.80;;
20427;SDS011;10373;49.768;18.302;2022-09-09T01:54:17;1.60;;;1.50;;
20427;SDS011;10373;49.768;18.302;2022-09-09T02:10:31;1.40;;;1.30;;
20427;SDS011;10373;49.768;18.302;2022-09-09T02:16:00;1.50;;;1.40;;
20427;SDS011;10373;49.768;18.302;2022-09-09T02:18:50;1.33;;;1.23;;
20427;SDS011;10373;49.768;18.302;2022-09-09T02:21:14;1.50;;;1.38;;
20427;SDS011;10373;49.768;18.302;2022-09-09T02:23:42;1.60;;;1.50;;
20427;SDS011;10373;49.768;18.302;2022-09-09T02:26:12;1.63;;;1.52;;
20427;SDS011;10373;49.768;18.302;2022-09-09T02:28:44;1.90;;;1.70;;
20427;SDS011;10373;49.768;18.302;2022-09-09T02:31:12;2.05;;;1.70;;
20427;SDS011;10373;49.768;18.302;2022-09-09T02:33:41;1.55;;;1.45;;
20427;SDS011;10373;49.768;18.302;2022-09-09T02:36:10;1.58;;;1.48;;
20427;SDS011;10373;49.768;18.302;2022-09-09T02:38:42;1.70;;;1.60;;
20427;SDS011;10373;49.768;18.302;2022-09-09T02:41:15;1.80;;;1.70;;
20427;SDS011;10373;49.768;18.302;2022-09-09T02:43:43;3.03;;;1.52;;
20427;SDS011;10373;49.768;18.302;2022-09-09T02:51:24;1.92;;;1.55;;
20427;SDS011;10373;49.768;18.302;2022-09-09T02:56:39;1.58;;;1.48;;
20427;SDS011;10373;49.768;18.302;2022-09-09T02:59:08;1.83;;;1.73;;
20427;SDS011;10373;49.768;18.302;2022-09-09T03:01:35;1.50;;;1.40;;
20427;SDS011;10373;49.768;18.302;2022-09-09T03:04:01;1.42;;;1.33;;
20427;SDS011;10373;49.768;18.302;2022-09-09T03:06:30;1.80;;;1.70;;
20427;SDS011;10373;49.768;18.302;2022-09-09T03:08:55;1.70;;;1.60;;
20427;SDS011;10373;49.768;18.302;2022-09-09T03:11:24;2.53;;;1.80;;
20427;SDS011;10373;49.768;18.302;2022-09-09T03:13:49;2.95;;;1.60;;
20427;SDS011;10373;49.768;18.302;2022-09-09T03:16:15;1.65;;;1.55;;
20427;SDS011;10373;49.768;18.302;2022-09-09T03:18:40;2.10;;;2.00;;
20427;SDS011;10373;49.768;18.302;2022-09-09T03:21:07;1.60;;;1.50;;
20427;SDS011;10373;49.768;18.302;2022-09-09T03:23:33;2.05;;;1.75;;
20427;SDS011;10373;49.768;18.302;2022-09-09T03:25:59;3.50;;;1.70;;
20427;SDS011;10373;49.768;18.302;2022-09-09T03:28:25;1.63;;;1.52;;
20427;SDS011;10373;49.768;18.302;2022-09-09T03:30:58;1.83;;;1.73;;
20427;SDS011;10373;49.768;18.302;2022-09-09T03:36:11;2.67;;;2.05;;
20427;SDS011;10373;49.768;18.302;2022-09-09T03:38:36;1.83;;;1.60;;
20427;SDS011;10373;49.768;18.302;2022-09-09T03:46:34;2.47;;;1.65;;
20427;SDS011;10373;49.768;18.302;2022-09-09T03:49:00;1.60;;;1.50;;
20427;SDS011;10373;49.768;18.302;2022-09-09T03:51:26;1.77;;;1.67;;
20427;SDS011;10373;49.768;18.302;2022-09-09T03:53:52;3.45;;;1.90;;
20427;SDS011;10373;49.768;18.302;2022-09-09T03:56:20;2.85;;;1.92;;
20427;SDS011;10373;49.768;18.302;2022-09-09T03:58:46;1.58;;;1.48;;
20427;SDS011;10373;49.768;18.302;2022-09-09T04:01:12;1.95;;;1.83;;
20427;SDS011;10373;49.768;18.302;2022-09-09T04:03:39;2.13;;;1.90;;
20427;SDS011;10373;49.768;18.302;2022-09-09T04:09:43;2.30;;;1.77;;
20427;SDS011;10373;49.768;18.302;2022-09-09T04:12:09;3.22;;;1.90;;
20427;SDS011;10373;49.768;18.302;2022-09-09T04:14:38;1.75;;;1.65;;
20427;SDS011;10373;49.768;18.302;2022-09-09T04:17:03;1.70;;;1.60;;
20427;SDS011;10373;49.768;18.302;2022-09-09T04:19:31;2.40;;;1.60;;
20427;SDS011;10373;49.768;18.302;2022-09-09T04:21:57;3.38;;;1.88;;
20427;SDS011;10373;49.768;18.302;2022-09-09T04:24:23;1.75;;;1.52;;
20427;SDS011;10373;49.768;18.302;2022-09-09T04:26:51;2.40;;;1.85;;
20427;SDS011;10373;49.768;18.302;2022-09-09T04:29:17;2.90;;;1.65;;
20427;SDS011;10373;49.768;18.302;2022-09-09T04:31:43;2.00;;;1.90;;
20427;SDS011;10373;49.768;18.302;2022-09-09T04:34:09;1.80;;;1.70;;
20427;SDS011;10373;49.768;18.302;2022-09-09T04:36:35;1.90;;;1.80;;
20427;SDS011;10373;49.768;18.302;2022-09-09T04:39:01;1.85;;;1.75;;
20427;SDS011;10373;49.768;18.302;2022-09-09T04:41:27;2.05;;;1.95;;
20427;SDS011;10373;49.768;18.302;2022-09-09T04:43:53;2.17;;;1.60;;
20427;SDS011;10373;49.768;18.302;2022-09-09T04:46:20;1.70;;;1.60;;
20427;SDS011;10373;49.768;18.302;2022-09-09T04:48:48;1.90;;;1.73;;
20427;SDS011;10373;49.768;18.302;2022-09-09T04:51:14;1.60;;;1.50;;
20427;SDS011;10373;49.768;18.302;2022-09-09T04:56:16;2.30;;;2.10;;
20427;SDS011;10373;49.768;18.302;2022-09-09T04:58:43;2.65;;;1.80;;
20427;SDS011;10373;49.768;18.302;2022-09-09T05:03:45;2.03;;;1.77;;
20427;SDS011;10373;49.768;18.302;2022-09-09T05:06:12;1.92;;;1.70;;
20427;SDS011;10373;49.768;18.302;2022-09-09T05:08:39;2.85;;;2.10;;
20427;SDS011;10373;49.768;18.302;2022-09-09T05:11:22;2.38;;;1.75;;
20427;SDS011;10373;49.768;18.302;2022-09-09T05:13:51;1.70;;;1.60;;
20427;SDS011;10373;49.768;18.302;2022-09-09T05:16:17;3.05;;;2.05;;
20427;SDS011;10373;49.768;18.302;2022-09-09T05:18:43;1.85;;;1.75;;
20427;SDS011;10373;49.768;18.302;2022-09-09T05:21:13;1.85;;;1.75;;
20427;SDS011;10373;49.768;18.302;2022-09-09T05:23:40;1.75;;;1.65;;
20427;SDS011;10373;49.768;18.302;2022-09-09T05:26:07;3.03;;;1.90;;
20427;SDS011;10373;49.768;18.302;2022-09-09T05:28:37;3.00;;;2.40;;
20427;SDS011;10373;49.768;18.302;2022-09-09T05:31:03;2.30;;;2.15;;
20427;SDS011;10373;49.768;18.302;2022-09-09T05:33:34;2.38;;;2.20;;
20427;SDS011;10373;49.768;18.302;2022-09-09T05:36:02;1.95;;;1.85;;
20427;SDS011;10373;49.768;18.302;2022-09-09T05:38:33;2.42;;;2.22;;
20427;SDS011;10373;49.768;18.302;2022-09-09T05:40:59;2.97;;;1.83;;
20427;SDS011;10373;49.768;18.302;2022-09-09T05:43:26;1.85;;;1.75;;
20427;SDS011;10373;49.768;18.302;2022-09-09T05:46:00;1.92;;;1.80;;
20427;SDS011;10373;49.768;18.302;2022-09-09T05:48:33;1.83;;;1.70;;
20427;SDS011;10373;49.768;18.302;2022-09-09T05:51:02;1.70;;;1.60;;
20427;SDS011;10373;49.768;18.302;2022-09-09T05:53:29;1.90;;;1.80;;
20427;SDS011;10373;49.768;18.302;2022-09-09T05:56:18;1.80;;;1.70;;
20427;SDS011;10373;49.768;18.302;2022-09-09T05:58:45;1.90;;;1.80;;
20427;SDS011;10373;49.768;18.302;2022-09-09T06:03:45;1.67;;;1.58;;
20427;SDS011;10373;49.768;18.302;2022-09-09T06:06:13;2.10;;;2.00;;
20427;SDS011;10373;49.768;18.302;2022-09-09T06:08:41;2.20;;;2.00;;
20427;SDS011;10373;49.768;18.302;2022-09-09T06:11:12;2.75;;;2.00;;
20427;SDS011;10373;49.768;18.302;2022-09-09T06:13:40;2.30;;;2.10;;
20427;SDS011;10373;49.768;18.302;2022-09-09T06:16:08;1.75;;;1.65;;
20427;SDS011;10373;49.768;18.302;2022-09-09T06:18:41;1.70;;;1.60;;
20427;SDS011;10373;49.768;18.302;2022-09-09T06:21:11;3.35;;;1.80;;
20427;SDS011;10373;49.768;18.302;2022-09-09T06:23:42;2.90;;;1.90;;
20427;SDS011;10373;49.768;18.302;2022-09-09T06:28:44;2.33;;;2.05;;
20427;SDS011;10373;49.768;18.302;2022-09-09T06:31:13;2.67;;;2.30;;
20427;SDS011;10373;49.768;18.302;2022-09-09T06:33:42;2.80;;;2.50;;
20427;SDS011;10373;49.768;18.302;2022-09-09T06:36:18;2.10;;;1.90;;
20427;SDS011;10373;49.768;18.302;2022-09-09T06:38:49;2.25;;;2.10;;
20427;SDS011;10373;49.768;18.302;2022-09-09T06:41:15;1.48;;;1.38;;
20427;SDS011;10373;49.768;18.302;2022-09-09T06:43:43;1.85;;;1.75;;
20427;SDS011;10373;49.768;18.302;2022-09-09T06:48:38;1.77;;;1.60;;
20427;SDS011;10373;49.768;18.302;2022-09-09T06:53:44;1.55;;;1.45;;
20427;SDS011;10373;49.768;18.302;2022-09-09T06:58:43;2.92;;;2.10;;
20427;SDS011;10373;49.768;18.302;2022-09-09T07:01:10;1.80;;;1.70;;
20427;SDS011;10373;49.768;18.302;2022-09-09T07:03:38;2.30;;;2.10;;
20427;SDS011;10373;49.768;18.302;2022-09-09T07:06:05;3.22;;;2.25;;
20427;SDS011;10373;49.768;18.302;2022-09-09T07:18:53;2.70;;;2.50;;
20427;SDS011;10373;49.768;18.302;2022-09-09T07:21:23;3.50;;;2.03;;
20427;SDS011;10373;49.768;18.302;2022-09-09T07:23:51;1.88;;;1.77;;
20427;SDS011;10373;49.768;18.302;2022-09-09T07:26:18;2.20;;;2.00;;
20427;SDS011;10373;49.768;18.302;2022-09-09T07:28:45;3.25;;;2.53;;
20427;SDS011;10373;49.768;18.302;2022-09-09T07:31:16;4.47;;;2.55;;
20427;SDS011;10373;49.768;18.302;2022-09-09T07:33:50;3.55;;;2.60;;
20427;SDS011;10373;49.768;18.302;2022-09-09T07:36:17;3.10;;;2.90;;
20427;SDS011;10373;49.768;18.302;2022-09-09T07:38:51;3.08;;;2.78;;
20427;SDS011;10373;49.768;18.302;2022-09-09T07:43:51;3.30;;;3.00;;
20427;SDS011;10373;49.768;18.302;2022-09-09T07:46:19;3.95;;;3.08;;
20427;SDS011;10373;49.768;18.302;2022-09-09T07:48:49;3.30;;;3.00;;
20427;SDS011;10373;49.768;18.302;2022-09-09T07:51:18;3.17;;;2.85;;
20427;SDS011;10373;49.768;18.302;2022-09-09T07:53:47;3.83;;;3.53;;
20427;SDS011;10373;49.768;18.302;2022-09-09T07:56:16;5.30;;;3.35;;
20427;SDS011;10373;49.768;18.302;2022-09-09T07:58:46;4.78;;;3.67;;
20427;SDS011;10373;49.768;18.302;2022-09-09T08:01:16;4.32;;;3.90;;
20427;SDS011;10373;49.768;18.302;2022-09-09T08:03:44;3.90;;;3.50;;
20427;SDS011;10373;49.768;18.302;2022-09-09T08:06:11;5.78;;;3.05;;
20427;SDS011;10373;49.768;18.302;2022-09-09T08:08:37;3.30;;;3.00;;
20427;SDS011;10373;49.768;18.302;2022-09-09T08:11:07;4.05;;;3.33;;
20427;SDS011;10373;49.768;18.302;2022-09-09T08:13:37;5.03;;;3.58;;
20427;SDS011;10373;49.768;18.302;2022-09-09T08:16:05;3.00;;;2.70;;
20427;SDS011;10373;49.768;18.302;2022-09-09T08:18:35;3.83;;;2.67;;
20427;SDS011;10373;49.768;18.302;2022-09-09T08:23:36;4.68;;;3.78;;
20427;SDS011;10373;49.768;18.302;2022-09-09T08:26:10;3.72;;;3.17;;
20427;SDS011;10373;49.768;18.302;2022-09-09T08:28:39;5.43;;;3.70;;
20427;SDS011;10373;49.768;18.302;2022-09-09T08:31:06;4.00;;;3.60;;
20427;SDS011;10373;49.768;18.302;2022-09-09T08:33:39;4.43;;;3.83;;
20427;SDS011;10373;49.768;18.302;2022-09-09T08:36:06;4.63;;;4.05;;
20427;SDS011;10373;49.768;18.302;2022-09-09T08:38:34;4.38;;;3.33;;
20427;SDS011;10373;49.768;18.302;2022-09-09T08:41:09;3.45;;;2.97;;
20427;SDS011;10373;49.768;18.302;2022-09-09T08:43:48;4.05;;;3.40;;
20427;SDS011;10373;49.768;18.302;2022-09-09T08:46:23;4.90;;;4.10;;
20427;SDS011;10373;49.768;18.302;2022-09-09T08:51:41;4.18;;;3.50;;
20427;SDS011;10373;49.768;18.302;2022-09-09T08:54:07;5.20;;;4.60;;
20427;SDS011;10373;49.768;18.302;2022-09-09T08:56:35;4.88;;;3.55;;
20427;SDS011;10373;49.768;18.302;2022-09-09T08:59:01;4.22;;;3.10;;
20427;SDS011;10373;49.768;18.302;2022-09-09T09:04:05;3.55;;;3.22;;
20427;SDS011;10373;49.768;18.302;2022-09-09T09:06:55;6.07;;;3.50;;
20427;SDS011;10373;49.768;18.302;2022-09-09T09:09:29;3.00;;;2.70;;
20427;SDS011;10373;49.768;18.302;2022-09-09T09:12:11;3.47;;;3.08;;
20427;SDS011;10373;49.768;18.302;2022-09-09T09:14:41;3.65;;;3.20;;
20427;SDS011;10373;49.768;18.302;2022-09-09T09:17:14;3.95;;;3.33;;
20427;SDS011;10373;49.768;18.302;2022-09-09T09:19:44;3.83;;;3.42;;
20427;SDS011;10373;49.768;18.302;2022-09-09T09:27:25;3.15;;;2.90;;
20427;SDS011;10373;49.768;18.302;2022-09-09T09:29:58;3.00;;;2.70;;
20427;SDS011;10373;49.768;18.302;2022-09-09T09:32:27;2.80;;;2.50;;
20427;SDS011;10373;49.768;18.302;2022-09-09T09:34:56;2.85;;;2.65;;
20427;SDS011;10373;49.768;18.302;2022-09-09T09:37:27;2.70;;;2.50;;
20427;SDS011;10373;49.768;18.302;2022-09-09T09:39:55;2.70;;;2.50;;
20427;SDS011;10373;49.768;18.302;2022-09-09T09:42:20;3.03;;;2.40;;
20427;SDS011;10373;49.768;18.302;2022-09-09T09:44:47;2.88;;;2.58;;
20427;SDS011;10373;49.768;18.302;2022-09-09T09:47:14;2.50;;;2.30;;
20427;SDS011;10373;49.768;18.302;2022-09-09T09:49:54;1.90;;;1.80;;
20427;SDS011;10373;49.768;18.302;2022-09-09T09:52:25;1.92;;;1.70;;
20427;SDS011;10373;49.768;18.302;2022-09-09T09:54:53;1.80;;;1.38;;
20427;SDS011;10373;49.768;18.302;2022-09-09T09:57:27;1.40;;;1.30;;
20427;SDS011;10373;49.768;18.302;2022-09-09T10:00:04;1.50;;;1.40;;
20427;SDS011;10373;49.768;18.302;2022-09-09T10:02:42;1.50;;;1.40;;
20427;SDS011;10373;49.768;18.302;2022-09-09T10:07:38;3.05;;;1.40;;
20427;SDS011;10373;49.768;18.302;2022-09-09T10:10:04;1.40;;;1.30;;
20427;SDS011;10373;49.768;18.302;2022-09-09T10:12:59;1.42;;;1.30;;
20427;SDS011;10373;49.768;18.302;2022-09-09T10:16:12;1.35;;;1.25;;
20427;SDS011;10373;49.768;18.302;2022-09-09T10:18:59;1.40;;;1.30;;
20427;SDS011;10373;49.768;18.302;2022-09-09T10:21:32;2.35;;;1.40;;
20427;SDS011;10373;49.768;18.302;2022-09-09T10:33:25;1.45;;;1.05;;
20427;SDS011;10373;49.768;18.302;2022-09-09T10:35:34;1.35;;;1.15;;
20427;SDS011;10373;49.768;18.302;2022-09-09T10:38:25;0.80;;;0.80;;
20427;SDS011;10373;49.768;18.302;2022-09-09T10:57:08;0.90;;;0.80;;
20427;SDS011;10373;49.768;18.302;2022-09-09T10:59:43;1.02;;;0.93;;
20427;SDS011;10373;49.768;18.302;2022-09-09T11:02:18;0.70;;;0.70;;
20427;SDS011;10373;49.768;18.302;2022-09-09T11:05:04;1.77;;;0.93;;
20427;SDS011;10373;49.768;18.302;2022-09-09T11:07:40;0.93;;;0.88;;
20427;SDS011;10373;49.768;18.302;2022-09-09T11:10:36;0.73;;;0.73;;
20427;SDS011;10373;49.768;18.302;2022-09-09T11:12:59;2.75;;;0.70;;
20427;SDS011;10373;49.768;18.302;2022-09-09T11:15:31;0.95;;;0.90;;
20427;SDS011;10373;49.768;18.302;2022-09-09T11:18:04;1.90;;;0.95;;
20427;SDS011;10373;49.768;18.302;2022-09-09T11:20:35;0.80;;;0.80;;
20427;SDS011;10373;49.768;18.302;2022-09-09T11:25:41;0.85;;;0.70;;
20427;SDS011;10373;49.768;18.302;2022-09-09T11:38:50;0.90;;;0.88;;
20427;SDS011;10373;49.768;18.302;2022-09-09T11:41:17;0.52;;;0.52;;
20427;SDS011;10373;49.768;18.302;2022-09-09T11:43:49;0.90;;;0.73;;
20427;SDS011;10373;49.768;18.302;2022-09-09T11:46:17;1.08;;;0.68;;
20427;SDS011;10373;49.768;18.302;2022-09-09T11:49:00;0.75;;;0.60;;
20427;SDS011;10373;49.768;18.302;2022-09-09T11:51:27;0.93;;;0.57;;
20427;SDS011;10373;49.768;18.302;2022-09-09T11:56:47;0.65;;;0.55;;
20427;SDS011;10373;49.768;18.302;2022-09-09T11:59:32;1.88;;;0.73;;
20427;SDS011;10373;49.768;18.302;2022-09-09T12:01:59;0.63;;;0.50;;
20427;SDS011;10373;49.768;18.302;2022-09-09T12:04:37;0.60;;;0.60;;
20427;SDS011;10373;49.768;18.302;2022-09-09T12:12:24;0.50;;;0.50;;
20427;SDS011;10373;49.768;18.302;2022-09-09T12:17:36;1.05;;;0.52;;
20427;SDS011;10373;49.768;18.302;2022-09-09T12:31:23;0.60;;;0.60;;
20427;SDS011;10373;49.768;18.302;2022-09-09T12:34:15;0.50;;;0.38;;
20427;SDS011;10373;49.768;18.302;2022-09-09T12:36:47;0.68;;;0.50;;
20427;SDS011;10373;49.768;18.302;2022-09-09T12:39:22;0.55;;;0.40;;
20427;SDS011;10373;49.768;18.302;2022-09-09T12:42:02;0.77;;;0.40;;
20427;SDS011;10373;49.768;18.302;2022-09-09T12:44:28;1.23;;;0.60;;
20427;SDS011;10373;49.768;18.302;2022-09-09T12:46:55;1.75;;;0.40;;
20427;SDS011;10373;49.768;18.302;2022-09-09T12:51:56;0.88;;;0.52;;
20427;SDS011;10373;49.768;18.302;2022-09-09T12:54:22;0.52;;;0.40;;
20427;SDS011;10373;49.768;18.302;2022-09-09T12:56:48;0.75;;;0.60;;
20427;SDS011;10373;49.768;18.302;2022-09-09T12:59:25;0.45;;;0.45;;
20427;SDS011;10373;49.768;18.302;2022-09-09T13:01:59;0.88;;;0.40;;
20427;SDS011;10373;49.768;18.302;2022-09-09T13:04:25;2.67;;;0.63;;
20427;SDS011;10373;49.768;18.302;2022-09-09T13:06:51;0.52;;;0.40;;
20427;SDS011;10373;49.768;18.302;2022-09-09T13:09:17;0.55;;;0.50;;
20427;SDS011;10373;49.768;18.302;2022-09-09T13:11:47;0.50;;;0.50;;
20427;SDS011;10373;49.768;18.302;2022-09-09T13:14:22;1.02;;;0.50;;
20427;SDS011;10373;49.768;18.302;2022-09-09T13:16:57;0.40;;;0.40;;
20427;SDS011;10373;49.768;18.302;2022-09-09T13:19:25;1.02;;;0.60;;
20427;SDS011;10373;49.768;18.302;2022-09-09T13:21:54;0.57;;;0.40;;
20427;SDS011;10373;49.768;18.302;2022-09-09T13:24:23;1.02;;;0.60;;
20427;SDS011;10373;49.768;18.302;2022-09-09T13:26:58;0.60;;;0.55;;
20427;SDS011;10373;49.768;18.302;2022-09-09T13:29:27;0.75;;;0.50;;
20427;SDS011;10373;49.768;18.302;2022-09-09T13:31:53;0.75;;;0.50;;
20427;SDS011;10373;49.768;18.302;2022-09-09T13:34:29;0.50;;;0.50;;
20427;SDS011;10373;49.768;18.302;2022-09-09T13:36:58;0.60;;;0.60;;
20427;SDS011;10373;49.768;18.302;2022-09-09T13:39:28;0.73;;;0.45;;
20427;SDS011;10373;49.768;18.302;2022-09-09T13:41:54;0.60;;;0.50;;
20427;SDS011;10373;49.768;18.302;2022-09-09T13:44:21;0.73;;;0.50;;
20427;SDS011;10373;49.768;18.302;2022-09-09T13:47:03;0.98;;;0.50;;
20427;SDS011;10373;49.768;18.302;2022-09-09T13:49:46;0.68;;;0.50;;
20427;SDS011;10373;49.768;18.302;2022-09-09T13:52:13;0.93;;;0.50;;
20427;SDS011;10373;49.768;18.302;2022-09-09T13:54:52;1.38;;;0.60;;
20427;SDS011;10373;49.768;18.302;2022-09-09T13:57:22;0.40;;;0.40;;
20427;SDS011;10373;49.768;18.302;2022-09-09T13:59:50;0.43;;;0.43;;
20427;SDS011;10373;49.768;18.302;2022-09-09T14:02:17;0.65;;;0.52;;
20427;SDS011;10373;49.768;18.302;2022-09-09T14:04:43;0.60;;;0.60;;
20427;SDS011;10373;49.768;18.302;2022-09-09T14:07:13;3.60;;;0.60;;
20427;SDS011;10373;49.768;18.302;2022-09-09T14:09:40;2.45;;;0.68;;
20427;SDS011;10373;49.768;18.302;2022-09-09T14:12:10;1.13;;;0.60;;
20427;SDS011;10373;49.768;18.302;2022-09-09T14:14:36;0.50;;;0.50;;
20427;SDS011;10373;49.768;18.302;2022-09-09T14:17:02;2.08;;;0.70;;
20427;SDS011;10373;49.768;18.302;2022-09-09T14:19:29;0.60;;;0.60;;
20427;SDS011;10373;49.768;18.302;2022-09-09T14:21:56;0.47;;;0.35;;
20427;SDS011;10373;49.768;18.302;2022-09-09T14:24:22;0.60;;;0.50;;
20427;SDS011;10373;49.768;18.302;2022-09-09T14:26:48;0.93;;;0.43;;
20427;SDS011;10373;49.768;18.302;2022-09-09T14:29:13;0.38;;;0.38;;
20427;SDS011;10373;49.768;18.302;2022-09-09T14:31:39;1.10;;;0.70;;
20427;SDS011;10373;49.768;18.302;2022-09-09T14:34:05;0.50;;;0.50;;
20427;SDS011;10373;49.768;18.302;2022-09-09T14:36:31;0.85;;;0.70;;
20427;SDS011;10373;49.768;18.302;2022-09-09T14:38:57;0.70;;;0.50;;
20427;SDS011;10373;49.768;18.302;2022-09-09T14:41:23;0.77;;;0.68;;
20427;SDS011;10373;49.768;18.302;2022-09-09T14:43:50;0.55;;;0.52;;
20427;SDS011;10373;49.768;18.302;2022-09-09T14:46:17;0.63;;;0.43;;
20427;SDS011;10373;49.768;18.302;2022-09-09T14:48:44;1.88;;;0.60;;
20427;SDS011;10373;49.768;18.302;2022-09-09T14:53:37;0.60;;;0.60;;
20427;SDS011;10373;49.768;18.302;2022-09-09T14:56:08;0.75;;;0.50;;
20427;SDS011;10373;49.768;18.302;2022-09-09T14:58:38;0.63;;;0.52;;
20427;SDS011;10373;49.768;18.302;2022-09-09T15:01:08;0.55;;;0.43;;
20427;SDS011;10373;49.768;18.302;2022-09-09T15:03:35;1.00;;;0.55;;
20427;SDS011;10373;49.768;18.302;2022-09-09T15:06:09;0.73;;;0.50;;
20427;SDS011;10373;49.768;18.302;2022-09-09T15:08:36;1.45;;;0.60;;
20427;SDS011;10373;49.768;18.302;2022-09-09T15:11:03;2.17;;;0.60;;
20427;SDS011;10373;49.768;18.302;2022-09-09T15:13:31;0.50;;;0.40;;
20427;SDS011;10373;49.768;18.302;2022-09-09T15:16:03;0.50;;;0.40;;
20427;SDS011;10373;49.768;18.302;2022-09-09T15:18:30;1.65;;;0.50;;
20427;SDS011;10373;49.768;18.302;2022-09-09T15:20:55;1.00;;;0.50;;
20427;SDS011;10373;49.768;18.302;2022-09-09T15:23:21;0.68;;;0.52;;
20427;SDS011;10373;49.768;18.302;2022-09-09T15:25:51;0.57;;;0.50;;
20427;SDS011;10373;49.768;18.302;2022-09-09T15:28:21;1.42;;;0.60;;
20427;SDS011;10373;49.768;18.302;2022-09-09T15:30:48;0.60;;;0.60;;
20427;SDS011;10373;49.768;18.302;2022-09-09T15:33:15;0.57;;;0.50;;
20427;SDS011;10373;49.768;18.302;2022-09-09T15:35:41;0.80;;;0.50;;
20427;SDS011;10373;49.768;18.302;2022-09-09T15:38:06;0.88;;;0.60;;
20427;SDS011;10373;49.768;18.302;2022-09-09T15:40:32;0.73;;;0.60;;
20427;SDS011;10373;49.768;18.302;2022-09-09T15:42:58;0.40;;;0.40;;
20427;SDS011;10373;49.768;18.302;2022-09-09T15:45:24;0.50;;;0.50;;
20427;SDS011;10373;49.768;18.302;2022-09-09T15:47:49;0.80;;;0.70;;
20427;SDS011;10373;49.768;18.302;2022-09-09T15:50:15;0.47;;;0.45;;
20427;SDS011;10373;49.768;18.302;2022-09-09T15:52:41;0.90;;;0.63;;
20427;SDS011;10373;49.768;18.302;2022-09-09T15:55:07;0.95;;;0.73;;
20427;SDS011;10373;49.768;18.302;2022-09-09T15:57:33;0.90;;;0.70;;
20427;SDS011;10373;49.768;18.302;2022-09-09T15:59:59;1.17;;;0.63;;
20427;SDS011;10373;49.768;18.302;2022-09-09T16:02:26;1.20;;;0.80;;
20427;SDS011;10373;49.768;18.302;2022-09-09T16:04:52;0.73;;;0.73;;
20427;SDS011;10373;49.768;18.302;2022-09-09T16:07:17;1.15;;;0.80;;
20427;SDS011;10373;49.768;18.302;2022-09-09T16:09:43;0.98;;;0.80;;
20427;SDS011;10373;49.768;18.302;2022-09-09T16:12:09;4.22;;;1.23;;
20427;SDS011;10373;49.768;18.302;2022-09-09T16:14:36;1.38;;;0.90;;
20427;SDS011;10373;49.768;18.302;2022-09-09T16:17:04;1.13;;;0.82;;
20427;SDS011;10373;49.768;18.302;2022-09-09T16:19:31;1.00;;;0.90;;
20427;SDS011;10373;49.768;18.302;2022-09-09T16:21:57;1.05;;;0.77;;
20427;SDS011;10373;49.768;18.302;2022-09-09T16:24:23;0.90;;;0.90;;
20427;SDS011;10373;49.768;18.302;2022-09-09T16:26:52;1.88;;;1.00;;
20427;SDS011;10373;49.768;18.302;2022-09-09T16:29:19;1.00;;;0.90;;
20427;SDS011;10373;49.768;18.302;2022-09-09T16:31:52;1.65;;;0.90;;
20427;SDS011;10373;49.768;18.302;2022-09-09T16:34:18;0.98;;;0.90;;
20427;SDS011;10373;49.768;18.302;2022-09-09T16:36:44;1.45;;;1.20;;
20427;SDS011;10373;49.768;18.302;2022-09-09T16:39:11;1.45;;;1.27;;
20427;SDS011;10373;49.768;18.302;2022-09-09T16:41:42;2.03;;;1.38;;
20427;SDS011;10373;49.768;18.302;2022-09-09T16:44:10;1.15;;;1.10;;
20427;SDS011;10373;49.768;18.302;2022-09-09T16:46:38;1.02;;;0.90;;
20427;SDS011;10373;49.768;18.302;2022-09-09T16:49:08;1.05;;;0.88;;
20427;SDS011;10373;49.768;18.302;2022-09-09T16:51:39;1.42;;;1.02;;
20427;SDS011;10373;49.768;18.302;2022-09-09T16:54:07;0.98;;;0.95;;
20427;SDS011;10373;49.768;18.302;2022-09-09T16:56:35;0.80;;;0.80;;
20427;SDS011;10373;49.768;18.302;2022-09-09T16:59:04;1.50;;;0.70;;
20427;SDS011;10373;49.768;18.302;2022-09-09T17:01:32;1.45;;;1.20;;
20427;SDS011;10373;49.768;18.302;2022-09-09T17:04:02;1.50;;;1.40;;
20427;SDS011;10373;49.768;18.302;2022-09-09T17:06:30;2.35;;;1.60;;
20427;SDS011;10373;49.768;18.302;2022-09-09T17:09:00;1.73;;;1.20;;
20427;SDS011;10373;49.768;18.302;2022-09-09T17:11:27;0.70;;;0.68;;
20427;SDS011;10373;49.768;18.302;2022-09-09T17:13:54;1.38;;;0.90;;
20427;SDS011;10373;49.768;18.302;2022-09-09T17:16:22;1.10;;;1.00;;
20427;SDS011;10373;49.768;18.302;2022-09-09T17:18:49;2.17;;;1.58;;
20427;SDS011;10373;49.768;18.302;2022-09-09T17:21:17;2.38;;;1.50;;
20427;SDS011;10373;49.768;18.302;2022-09-09T17:23:44;2.90;;;1.50;;
20427;SDS011;10373;49.768;18.302;2022-09-09T17:26:12;1.85;;;1.60;;
20427;SDS011;10373;49.768;18.302;2022-09-09T17:28:42;1.45;;;1.13;;
20427;SDS011;10373;49.768;18.302;2022-09-09T17:31:10;1.92;;;1.60;;
20427;SDS011;10373;49.768;18.302;2022-09-09T17:33:38;2.15;;;1.50;;
20427;SDS011;10373;49.768;18.302;2022-09-09T17:36:10;1.92;;;1.40;;
20427;SDS011;10373;49.768;18.302;2022-09-09T17:38:42;1.45;;;1.20;;
20427;SDS011;10373;49.768;18.302;2022-09-09T17:41:20;1.77;;;1.20;;
20427;SDS011;10373;49.768;18.302;2022-09-09T17:43:50;2.95;;;1.58;;
20427;SDS011;10373;49.768;18.302;2022-09-09T17:46:20;1.40;;;1.30;;
20427;SDS011;10373;49.768;18.302;2022-09-09T17:48:49;2.08;;;1.50;;